Time;durP1;ratioP1;P1;durP2;ratioP2;P2;SDS_P1;SDS_P2;PMS_P1;PMS_P2;Temp;Humidity;BMP_temperature;BMP_pressure;BME280_temperature;BME280_humidity;BME280_pressure;Samples;Min_cycle;Max_cycle;Signal;HPM_P1;HPM_P2
2021/01/25 00:00:22;;;;;;;12.10;4.10;;;;;;;;;;5093445;28;20020;-63
2021/01/25 00:02:48;;;;;;;9.82;3.90;;;;;;;;;;5093267;28;20439;-63
2021/01/25 00:05:14;;;;;;;12.45;4.68;;;;;;;;;;5092882;28;20025;-63
2021/01/25 00:07:41;;;;;;;12.40;3.58;;;;;;;;;;5108904;28;20028;-63
2021/01/25 00:10:08;;;;;;;8.55;4.38;;;;;;;;;;5093166;28;20028;-63
2021/01/25 00:12:34;;;;;;;14.18;6.93;;;;;;;;;;5092800;28;20020;-63
2021/01/25 00:15:00;;;;;;;16.25;7.07;;;;;;;;;;5093137;28;20052;-63
2021/01/25 00:17:27;;;;;;;8.02;4.53;;;;;;;;;;5108910;28;20019;-63
2021/01/25 00:19:53;;;;;;;11.43;4.30;;;;;;;;;;5092597;28;20046;-63
2021/01/25 00:22:19;;;;;;;14.45;6.28;;;;;;;;;;5092959;28;20028;-63
2021/01/25 00:24:45;;;;;;;10.02;4.88;;;;;;;;;;5092925;28;20028;-62
2021/01/25 00:27:11;;;;;;;15.63;5.68;;;;;;;;;;5108224;28;20016;-63
2021/01/25 00:29:37;;;;;;;15.50;7.88;;;;;;;;;;5108404;28;20032;-63
2021/01/25 00:32:06;;;;;;;13.80;6.07;;;;;;;;;;5108473;28;20031;-62
2021/01/25 00:34:32;;;;;;;12.88;5.28;;;;;;;;;;5092615;28;20027;-63
2021/01/25 00:36:58;;;;;;;8.88;4.60;;;;;;;;;;5092468;28;20021;-63
2021/01/25 00:39:24;;;;;;;9.63;4.85;;;;;;;;;;5092380;28;20023;-63
2021/01/25 00:41:50;;;;;;;9.50;4.63;;;;;;;;;;5092749;28;20454;-63
2021/01/25 00:44:16;;;;;;;8.02;3.70;;;;;;;;;;5092719;28;20024;-63
2021/01/25 00:46:43;;;;;;;17.25;5.82;;;;;;;;;;5107928;28;20031;-63
2021/01/25 00:49:09;;;;;;;13.15;5.18;;;;;;;;;;5092425;28;20790;-63
2021/01/25 00:51:35;;;;;;;13.70;4.80;;;;;;;;;;5092606;28;20028;-63
2021/01/25 00:54:01;;;;;;;9.80;4.18;;;;;;;;;;5092355;28;20024;-62
2021/01/25 00:56:27;;;;;;;10.85;4.75;;;;;;;;;;5092614;28;20132;-62
2021/01/25 00:58:53;;;;;;;11.65;4.00;;;;;;;;;;5092472;28;20031;-62
2021/01/25 01:01:20;;;;;;;12.70;5.28;;;;;;;;;;5092001;28;20552;-62
2021/01/25 01:03:46;;;;;;;14.43;5.70;;;;;;;;;;5092493;28;20062;-62
2021/01/25 01:06:12;;;;;;;17.73;5.57;;;;;;;;;;5092333;28;20490;-62
2021/01/25 01:08:38;;;;;;;12.32;4.70;;;;;;;;;;5091920;28;20034;-62
2021/01/25 01:11:04;;;;;;;8.43;4.32;;;;;;;;;;5108068;28;20038;-62
2021/01/25 01:13:31;;;;;;;10.10;4.25;;;;;;;;;;5092449;28;20012;-62
2021/01/25 01:15:57;;;;;;;14.95;4.43;;;;;;;;;;5092167;28;20020;-62
2021/01/25 01:18:23;;;;;;;12.60;5.40;;;;;;;;;;5092240;28;20112;-62
2021/01/25 01:20:49;;;;;;;10.30;4.65;;;;;;;;;;5092272;28;20024;-62
2021/01/25 01:23:15;;;;;;;13.18;5.32;;;;;;;;;;5091943;28;20133;-62
2021/01/25 01:25:42;;;;;;;8.90;4.85;;;;;;;;;;5092168;28;20047;-62
2021/01/25 01:28:08;;;;;;;12.43;4.15;;;;;;;;;;5107843;28;20395;-62
2021/01/25 01:30:35;;;;;;;14.20;4.60;;;;;;;;;;5091721;28;20081;-62
2021/01/25 01:33:01;;;;;;;9.85;4.30;;;;;;;;;;5092157;28;20023;-62
2021/01/25 01:35:27;;;;;;;9.95;3.92;;;;;;;;;;5091953;28;20089;-62
2021/01/25 01:37:53;;;;;;;16.20;5.65;;;;;;;;;;5107868;28;20024;-62
2021/01/25 01:40:19;;;;;;;14.25;5.13;;;;;;;;;;5092033;28;20016;-62
2021/01/25 01:42:45;;;;;;;13.32;5.50;;;;;;;;;;5107203;28;20021;-62
2021/01/25 01:45:12;;;;;;;17.02;6.10;;;;;;;;;;5092024;28;20017;-62
2021/01/25 01:47:39;;;;;;;12.93;5.10;;;;;;;;;;5092734;28;20420;-62
2021/01/25 01:50:07;;;;;;;12.02;5.63;;;;;;;;;;5111065;28;20032;-62
2021/01/25 01:52:33;;;;;;;17.05;5.00;;;;;;;;;;5095799;28;20029;-62
2021/01/25 01:55:00;;;;;;;14.70;5.13;;;;;;;;;;5095869;28;20058;-62
2021/01/25 01:57:28;;;;;;;11.68;5.35;;;;;;;;;;5111168;28;20093;-62
2021/01/25 01:59:54;;;;;;;9.38;5.80;;;;;;;;;;5095659;28;20408;-62
2021/01/25 02:02:21;;;;;;;16.42;5.70;;;;;;;;;;5095575;28;20056;-62
2021/01/25 02:04:47;;;;;;;9.20;4.88;;;;;;;;;;5110842;28;20024;-62
2021/01/25 02:07:16;;;;;;;14.82;4.65;;;;;;;;;;5095494;28;20499;-62
2021/01/25 02:09:45;;;;;;;13.90;5.07;;;;;;;;;;5095410;28;20035;-62
2021/01/25 02:12:11;;;;;;;10.27;4.78;;;;;;;;;;5095060;28;20020;-62
2021/01/25 02:14:38;;;;;;;8.43;4.15;;;;;;;;;;5111175;28;20028;-62
2021/01/25 02:17:05;;;;;;;13.25;3.30;;;;;;;;;;5095625;28;20251;-62
2021/01/25 02:19:37;;;;;;;8.32;3.88;;;;;;;;;;5094871;28;20353;-62
2021/01/25 02:22:13;;;;;;;5.90;3.30;;;;;;;;;;5095183;28;20031;-62
2021/01/25 02:24:46;;;;;;;6.00;3.28;;;;;;;;;;5111248;28;20376;-62
2021/01/25 02:27:24;;;;;;;9.10;4.07;;;;;;;;;;5095127;28;20384;-62
2021/01/25 02:29:51;;;;;;;11.25;4.07;;;;;;;;;;5094987;28;20032;-62
2021/01/25 02:32:17;;;;;;;7.43;2.95;;;;;;;;;;5110407;28;20074;-62
2021/01/25 02:34:43;;;;;;;5.97;2.65;;;;;;;;;;5095178;28;20019;-62
2021/01/25 02:37:10;;;;;;;13.20;2.83;;;;;;;;;;5110856;28;20020;-62
2021/01/25 02:39:37;;;;;;;9.63;3.17;;;;;;;;;;5094540;28;20027;-62
2021/01/25 02:42:03;;;;;;;7.15;2.85;;;;;;;;;;5094870;28;20024;-62
2021/01/25 02:44:30;;;;;;;3.38;2.13;;;;;;;;;;5094873;28;20016;-62
2021/01/25 02:46:58;;;;;;;4.93;2.35;;;;;;;;;;5094451;28;20020;-62
2021/01/25 02:49:24;;;;;;;6.03;2.55;;;;;;;;;;5094458;28;20497;-62
2021/01/25 02:51:50;;;;;;;5.68;2.55;;;;;;;;;;5110350;28;20020;-62
2021/01/25 02:54:17;;;;;;;4.60;2.13;;;;;;;;;;5094329;28;20028;-62
2021/01/25 02:56:43;;;;;;;4.63;2.15;;;;;;;;;;5094800;28;20590;-62
2021/01/25 02:59:10;;;;;;;4.50;2.38;;;;;;;;;;5094090;28;20024;-62
2021/01/25 03:01:36;;;;;;;5.60;2.67;;;;;;;;;;5094052;28;20031;-62
2021/01/25 03:04:03;;;;;;;6.68;2.30;;;;;;;;;;5094453;28;20024;-62
2021/01/25 03:06:29;;;;;;;6.80;2.97;;;;;;;;;;5094227;28;20024;-62
2021/01/25 03:08:55;;;;;;;6.72;3.47;;;;;;;;;;5093830;28;20063;-62
2021/01/25 03:11:21;;;;;;;5.68;2.50;;;;;;;;;;5094271;28;20032;-62
2021/01/25 03:13:48;;;;;;;8.00;3.72;;;;;;;;;;5110020;28;20027;-62
2021/01/25 03:16:16;;;;;;;8.48;2.85;;;;;;;;;;5094025;28;20380;-62
2021/01/25 03:18:43;;;;;;;7.63;2.47;;;;;;;;;;5109800;28;20039;-62
2021/01/25 03:21:09;;;;;;;19.30;8.18;;;;;;;;;;5093626;28;20101;-62
2021/01/25 03:23:38;;;;;;;15.88;6.32;;;;;;;;;;5094031;28;20548;-62
2021/01/25 03:26:04;;;;;;;8.77;3.65;;;;;;;;;;5093980;28;20051;-62
2021/01/25 03:28:30;;;;;;;10.00;3.78;;;;;;;;;;5093597;28;20372;-62
2021/01/25 03:30:56;;;;;;;8.07;2.70;;;;;;;;;;5093796;28;20097;-62
2021/01/25 03:33:23;;;;;;;7.32;3.30;;;;;;;;;;5093982;28;20020;-62
2021/01/25 03:35:49;;;;;;;6.88;2.10;;;;;;;;;;5093580;28;20111;-62
2021/01/25 03:38:15;;;;;;;5.45;1.60;;;;;;;;;;5093838;28;20031;-62
2021/01/25 03:40:41;;;;;;;6.18;1.27;;;;;;;;;;5093651;28;20016;-62
2021/01/25 03:43:07;;;;;;;4.03;1.25;;;;;;;;;;5093338;28;20095;-62
2021/01/25 03:45:34;;;;;;;2.33;1.02;;;;;;;;;;5093543;28;20016;-62
2021/01/25 03:48:00;;;;;;;2.80;1.55;;;;;;;;;;5093455;28;20044;-62
2021/01/25 03:50:26;;;;;;;3.80;1.30;;;;;;;;;;5093109;28;20036;-62
2021/01/25 03:52:52;;;;;;;5.57;1.98;;;;;;;;;;5109379;28;20036;-62
2021/01/25 03:55:18;;;;;;;1.30;1.08;;;;;;;;;;5093529;28;20444;-62
2021/01/25 03:57:44;;;;;;;27.35;20.00;;;;;;;;;;5092985;28;20048;-62
2021/01/25 04:00:11;;;;;;;18.65;11.45;;;;;;;;;;5091991;28;20070;-62
2021/01/25 04:02:37;;;;;;;8.80;5.53;;;;;;;;;;5093279;28;20020;-62
2021/01/25 04:05:03;;;;;;;27.95;25.13;;;;;;;;;;5108522;28;20059;-62
2021/01/25 04:07:29;;;;;;;6.43;3.58;;;;;;;;;;5092013;28;20021;-62
2021/01/25 04:09:56;;;;;;;3.17;1.95;;;;;;;;;;5092410;28;20036;-62
2021/01/25 04:12:22;;;;;;;3.25;1.73;;;;;;;;;;5092918;28;20031;-62
2021/01/25 04:14:48;;;;;;;6.05;2.25;;;;;;;;;;5093246;28;20028;-62
2021/01/25 04:17:15;;;;;;;12.00;5.00;;;;;;;;;;5092630;28;20020;-62
2021/01/25 04:19:41;;;;;;;16.08;13.48;;;;;;;;;;5108704;28;20032;-62
2021/01/25 04:22:07;;;;;;;8.20;4.35;;;;;;;;;;5091631;28;20156;-62
2021/01/25 04:24:34;;;;;;;9.38;3.05;;;;;;;;;;5092572;28;20036;-62
2021/01/25 04:27:00;;;;;;;13.60;3.28;;;;;;;;;;5092910;28;20098;-62
2021/01/25 04:29:26;;;;;;;5.55;2.55;;;;;;;;;;5092833;28;20028;-63
2021/01/25 04:31:52;;;;;;;3.70;1.13;;;;;;;;;;5108320;28;20027;-64
2021/01/25 04:34:18;;;;;;;15.13;9.38;;;;;;;;;;5092784;28;20032;-62
2021/01/25 04:36:44;;;;;;;18.00;10.25;;;;;;;;;;5092682;28;20549;-62
2021/01/25 04:39:11;;;;;;;16.10;8.65;;;;;;;;;;5092347;28;20024;-62
2021/01/25 04:41:37;;;;;;;15.15;6.20;;;;;;;;;;5093194;28;20062;-62
2021/01/25 04:44:03;;;;;;;11.65;5.25;;;;;;;;;;5092605;28;20020;-62
2021/01/25 04:46:30;;;;;;;14.95;6.20;;;;;;;;;;5092198;28;20028;-62
2021/01/25 04:48:56;;;;;;;10.35;5.18;;;;;;;;;;5092364;28;20408;-62
2021/01/25 04:51:24;;;;;;;16.23;8.27;;;;;;;;;;5108448;28;20064;-62
2021/01/25 04:53:51;;;;;;;13.80;8.43;;;;;;;;;;5107816;28;20103;-62
2021/01/25 04:56:17;;;;;;;30.23;15.35;;;;;;;;;;5092505;28;20031;-62
2021/01/25 04:58:43;;;;;;;43.75;22.05;;;;;;;;;;5091186;28;20017;-62
2021/01/25 05:01:09;;;;;;;21.05;13.88;;;;;;;;;;5092156;28;20050;-63
2021/01/25 05:03:35;;;;;;;9.38;4.78;;;;;;;;;;5091030;28;20031;-63
2021/01/25 05:06:02;;;;;;;9.48;4.40;;;;;;;;;;5092419;28;20027;-61
2021/01/25 05:08:28;;;;;;;22.92;12.25;;;;;;;;;;5091918;28;20046;-61
2021/01/25 05:10:54;;;;;;;14.75;8.32;;;;;;;;;;5092208;28;20035;-61
2021/01/25 05:13:21;;;;;;;15.82;10.25;;;;;;;;;;5108046;28;20024;-61
2021/01/25 05:15:49;;;;;;;18.70;10.63;;;;;;;;;;5088825;28;20388;-61
2021/01/25 05:18:19;;;;;;;14.07;8.45;;;;;;;;;;5090060;28;20016;-61
2021/01/25 05:20:48;;;;;;;10.38;6.25;;;;;;;;;;5092117;28;20091;-63
2021/01/25 05:23:14;;;;;;;11.35;5.63;;;;;;;;;;5095904;28;20028;-63
2021/01/25 05:25:41;;;;;;;27.00;15.07;;;;;;;;;;5096241;28;20020;-64
2021/01/25 05:28:07;;;;;;;27.73;16.30;;;;;;;;;;5096002;28;20020;-65
2021/01/25 05:30:34;;;;;;;37.10;20.15;;;;;;;;;;5096179;28;20487;-64
2021/01/25 05:33:01;;;;;;;38.10;23.83;;;;;;;;;;5094653;28;20039;-62
2021/01/25 05:35:30;;;;;;;35.78;22.17;;;;;;;;;;5092452;28;20060;-61
2021/01/25 05:37:56;;;;;;;31.55;16.65;;;;;;;;;;5094281;28;20106;-62
2021/01/25 05:40:24;;;;;;;23.42;13.82;;;;;;;;;;5092885;28;20104;-62
2021/01/25 05:42:50;;;;;;;11.85;6.03;;;;;;;;;;5093550;28;20445;-62
2021/01/25 05:45:17;;;;;;;11.30;5.82;;;;;;;;;;5094097;28;20027;-62
2021/01/25 05:47:47;;;;;;;23.63;12.15;;;;;;;;;;5094309;28;20040;-61
2021/01/25 05:50:30;;;;;;;17.38;10.40;;;;;;;;;;5095319;28;20060;-61
2021/01/25 05:52:57;;;;;;;21.95;14.32;;;;;;;;;;5095756;28;20477;-61
2021/01/25 05:55:24;;;;;;;20.60;11.95;;;;;;;;;;5094566;28;20426;-62
2021/01/25 05:57:51;;;;;;;18.67;10.27;;;;;;;;;;5094144;28;20020;-62
2021/01/25 06:00:17;;;;;;;17.20;10.00;;;;;;;;;;5096295;28;20367;-62
2021/01/25 06:02:47;;;;;;;32.53;18.23;;;;;;;;;;5095262;28;20047;-62
2021/01/25 06:05:22;;;;;;;31.02;18.90;;;;;;;;;;5095721;28;20416;-62
2021/01/25 06:07:50;;;;;;;29.65;16.88;;;;;;;;;;5093548;28;20048;-62
2021/01/25 06:10:19;;;;;;;31.30;18.80;;;;;;;;;;5087857;28;20038;-63
2021/01/25 06:12:48;;;;;;;39.75;28.70;;;;;;;;;;5091990;28;20030;-62
2021/01/25 06:15:23;;;;;;;30.52;17.65;;;;;;;;;;5094911;28;20028;-63
2021/01/25 06:17:49;;;;;;;20.90;10.85;;;;;;;;;;5074437;28;20031;-63
2021/01/25 06:20:18;;;;;;;17.65;9.18;;;;;;;;;;5073611;28;20028;-63
2021/01/25 06:22:45;;;;;;;41.08;28.45;;;;;;;;;;5074950;28;20025;-63
2021/01/25 06:25:12;;;;;;;156.70;75.90;;;;;;;;;;5059551;28;20099;-62
2021/01/25 06:27:38;;;;;;;92.93;49.88;;;;;;;;;;5073176;28;20048;-61
2021/01/25 06:30:05;;;;;;;49.88;27.23;;;;;;;;;;5091787;28;20059;-61
2021/01/25 06:32:32;;;;;;;144.85;80.95;;;;;;;;;;5072516;28;20024;-62
2021/01/25 06:35:00;;;;;;;100.88;55.17;;;;;;;;;;5073812;28;20036;-62
2021/01/25 06:37:28;;;;;;;70.80;40.72;;;;;;;;;;5074549;28;20158;-61
2021/01/25 06:39:57;;;;;;;68.53;39.05;;;;;;;;;;5071849;28;20384;-61
2021/01/25 06:42:31;;;;;;;37.13;22.55;;;;;;;;;;5078656;28;20191;-63
2021/01/25 06:44:58;;;;;;;51.83;30.73;;;;;;;;;;5094243;28;20027;-62
2021/01/25 06:47:25;;;;;;;38.22;22.15;;;;;;;;;;5068944;28;20028;-66
2021/01/25 06:49:52;;;;;;;22.88;14.77;;;;;;;;;;5091942;28;20492;-61
2021/01/25 06:52:18;;;;;;;34.65;19.98;;;;;;;;;;5093277;28;20028;-63
2021/01/25 06:54:45;;;;;;;37.45;17.80;;;;;;;;;;5093576;28;20095;-63
2021/01/25 06:57:25;;;;;;;111.18;53.58;;;;;;;;;;5092287;28;20020;-62
2021/01/25 06:59:52;;;;;;;50.70;30.90;;;;;;;;;;5093158;28;20028;-62
2021/01/25 07:02:23;;;;;;;46.30;24.40;;;;;;;;;;5093521;28;20046;-62
2021/01/25 07:04:51;;;;;;;34.08;19.92;;;;;;;;;;5091304;28;20028;-62
2021/01/25 07:07:43;;;;;;;33.83;17.65;;;;;;;;;;5075484;28;20016;-63
2021/01/25 07:10:10;;;;;;;52.95;29.30;;;;;;;;;;5091868;28;20123;-62
2021/01/25 07:12:39;;;;;;;21.05;12.73;;;;;;;;;;5093472;28;20020;-61
2021/01/25 07:15:06;;;;;;;22.33;12.43;;;;;;;;;;5080472;28;20176;-63
2021/01/25 07:17:32;;;;;;;21.73;11.27;;;;;;;;;;5092608;28;20032;-63
2021/01/25 07:19:59;;;;;;;23.77;9.02;;;;;;;;;;5088235;28;20028;-60
2021/01/25 07:22:25;;;;;;;17.63;9.45;;;;;;;;;;5084601;28;20025;-61
2021/01/25 07:24:53;;;;;;;13.48;7.82;;;;;;;;;;5073082;28;20517;-61
2021/01/25 07:27:19;;;;;;;15.43;9.30;;;;;;;;;;5073299;28;20034;-63
2021/01/25 07:29:46;;;;;;;18.30;10.77;;;;;;;;;;5097463;28;20484;-61
2021/01/25 07:32:13;;;;;;;31.88;17.83;;;;;;;;;;5071972;28;20161;-62
2021/01/25 07:34:39;;;;;;;26.35;15.88;;;;;;;;;;5087946;28;20023;-61
2021/01/25 07:37:05;;;;;;;18.48;8.95;;;;;;;;;;5091349;28;20031;-61
2021/01/25 07:39:31;;;;;;;25.92;14.07;;;;;;;;;;5092273;28;20024;-62
2021/01/25 07:41:57;;;;;;;16.70;8.18;;;;;;;;;;5092878;28;20031;-63
2021/01/25 07:44:24;;;;;;;17.63;9.57;;;;;;;;;;5092138;28;20028;-60
2021/01/25 07:46:50;;;;;;;30.17;15.07;;;;;;;;;;5092433;28;20464;-63
2021/01/25 07:49:26;;;;;;;21.00;11.27;;;;;;;;;;5091656;28;20044;-62
2021/01/25 07:51:52;;;;;;;19.40;9.85;;;;;;;;;;5090182;28;20047;-60
2021/01/25 07:54:18;;;;;;;25.10;13.73;;;;;;;;;;5089788;28;20562;-60
2021/01/25 07:56:44;;;;;;;17.85;9.93;;;;;;;;;;5089976;28;20039;-61
2021/01/25 07:59:14;;;;;;;13.77;6.15;;;;;;;;;;5090547;28;20091;-61
2021/01/25 08:02:02;;;;;;;18.98;10.98;;;;;;;;;;5091205;28;20055;-62
2021/01/25 08:04:29;;;;;;;13.85;7.82;;;;;;;;;;5089138;28;20503;-62
2021/01/25 08:06:59;;;;;;;16.42;9.93;;;;;;;;;;5090318;28;20028;-62
2021/01/25 08:09:26;;;;;;;9.73;5.43;;;;;;;;;;5091388;28;20059;-62
2021/01/25 08:11:52;;;;;;;26.55;11.27;;;;;;;;;;5090971;28;20059;-62
2021/01/25 08:14:18;;;;;;;47.10;18.20;;;;;;;;;;5092729;28;20443;-61
2021/01/25 08:16:51;;;;;;;20.13;9.85;;;;;;;;;;5092363;28;20379;-62
2021/01/25 08:19:27;;;;;;;13.43;7.43;;;;;;;;;;5092110;28;20069;-63
2021/01/25 08:22:03;;;;;;;17.55;9.20;;;;;;;;;;5092294;28;20548;-62
2021/01/25 08:24:30;;;;;;;14.73;9.00;;;;;;;;;;5091484;28;20030;-62
2021/01/25 08:27:08;;;;;;;8.00;4.18;;;;;;;;;;5091185;28;20078;-62
2021/01/25 08:29:34;;;;;;;12.23;5.93;;;;;;;;;;5092356;28;20535;-62
2021/01/25 08:32:10;;;;;;;11.05;4.88;;;;;;;;;;5091775;28;20068;-62
2021/01/25 08:34:36;;;;;;;13.85;6.65;;;;;;;;;;5092090;28;20048;-63
2021/01/25 08:37:10;;;;;;;10.13;4.65;;;;;;;;;;5092389;28;20073;-62
2021/01/25 08:39:44;;;;;;;9.80;4.43;;;;;;;;;;5089974;28;20035;-64
2021/01/25 08:42:12;;;;;;;4.60;2.28;;;;;;;;;;5092054;28;20051;-63
2021/01/25 08:44:42;;;;;;;7.72;3.42;;;;;;;;;;5091652;28;20039;-63
2021/01/25 08:47:09;;;;;;;3.63;1.23;;;;;;;;;;5091924;28;20552;-63
2021/01/25 08:49:41;;;;;;;1.55;0.88;;;;;;;;;;5091626;28;20043;-62
2021/01/25 08:52:21;;;;;;;2.63;1.30;;;;;;;;;;5090802;28;20077;-61
2021/01/25 08:54:48;;;;;;;1.10;0.80;;;;;;;;;;5091536;28;20023;-62
2021/01/25 08:57:15;;;;;;;3.58;1.88;;;;;;;;;;5089668;28;20511;-63
2021/01/25 08:59:44;;;;;;;13.02;5.95;;;;;;;;;;5091458;28;20031;-63
2021/01/25 09:02:13;;;;;;;5.80;2.75;;;;;;;;;;5090910;28;20016;-63
2021/01/25 09:04:39;;;;;;;7.47;4.45;;;;;;;;;;5090498;28;20024;-62
2021/01/25 09:07:09;;;;;;;24.05;13.55;;;;;;;;;;5091413;28;20055;-62
2021/01/25 09:09:35;;;;;;;27.38;16.42;;;;;;;;;;5084516;28;20401;-62
2021/01/25 09:12:02;;;;;;;10.52;5.65;;;;;;;;;;5088148;28;20094;-62
2021/01/25 09:16:21;;;;;;;13.25;5.25;;;;;;;;;;5108399;27;20812;-62
2021/01/25 09:18:48;;;;;;;14.52;3.83;;;;;;;;;;5109328;28;20035;-62
2021/01/25 09:21:14;;;;;;;7.07;3.13;;;;;;;;;;5106467;28;20027;-63
2021/01/25 09:23:40;;;;;;;10.60;4.07;;;;;;;;;;5096209;28;20028;-62
2021/01/25 09:26:06;;;;;;;7.68;3.65;;;;;;;;;;5088692;28;20384;-62
2021/01/25 09:28:32;;;;;;;6.05;2.35;;;;;;;;;;5087462;28;20020;-62
2021/01/25 09:30:58;;;;;;;6.28;2.63;;;;;;;;;;5099283;28;20028;-62
2021/01/25 09:33:25;;;;;;;5.43;2.60;;;;;;;;;;5081781;28;20468;-62
2021/01/25 09:35:51;;;;;;;6.63;3.00;;;;;;;;;;5087071;28;20032;-63
2021/01/25 09:38:17;;;;;;;12.80;6.00;;;;;;;;;;5087238;28;20016;-62
2021/01/25 09:40:44;;;;;;;13.68;5.00;;;;;;;;;;5088247;28;20048;-62
2021/01/25 09:43:10;;;;;;;17.52;8.88;;;;;;;;;;5088486;28;20083;-63
2021/01/25 09:46:44;;;;;;;15.32;6.90;;;;;;;;;;5109723;27;20787;-63
2021/01/25 09:49:10;;;;;;;6.60;3.17;;;;;;;;;;5108249;28;20024;-63
2021/01/25 09:51:37;;;;;;;15.68;5.55;;;;;;;;;;5108986;28;20113;-63
2021/01/25 09:54:03;;;;;;;11.88;5.50;;;;;;;;;;5109586;28;20054;-60
2021/01/25 09:56:29;;;;;;;16.98;6.68;;;;;;;;;;5124381;28;20379;-63
2021/01/25 09:58:56;;;;;;;12.60;6.65;;;;;;;;;;5109101;28;20031;-63
2021/01/25 10:01:25;;;;;;;5.95;3.45;;;;;;;;;;5108296;28;20020;-64
2021/01/25 10:03:51;;;;;;;8.73;4.28;;;;;;;;;;5107546;28;20426;-64
2021/01/25 10:06:17;;;;;;;15.27;6.75;;;;;;;;;;5106790;28;20046;-64
2021/01/25 10:08:44;;;;;;;15.82;7.72;;;;;;;;;;5105950;28;20020;-64
2021/01/25 10:11:10;;;;;;;12.27;5.95;;;;;;;;;;5089576;28;20128;-63
2021/01/25 10:13:37;;;;;;;12.32;6.18;;;;;;;;;;5105977;28;20020;-65
2021/01/25 10:16:03;;;;;;;9.18;4.55;;;;;;;;;;5106871;28;20061;-61
2021/01/25 10:18:29;;;;;;;27.02;9.55;;;;;;;;;;5101783;28;20051;-64
2021/01/25 10:20:55;;;;;;;17.50;10.15;;;;;;;;;;5107305;28;20016;-63
2021/01/25 10:23:22;;;;;;;15.23;6.40;;;;;;;;;;5106296;28;20387;-64
2021/01/25 10:25:48;;;;;;;11.40;5.60;;;;;;;;;;5123495;28;20695;-64
2021/01/25 10:28:15;;;;;;;10.48;4.47;;;;;;;;;;5107467;28;20108;-64
2021/01/25 10:30:42;;;;;;;24.40;7.97;;;;;;;;;;5108332;28;20161;-63
2021/01/25 10:33:08;;;;;;;12.90;6.45;;;;;;;;;;5108367;28;20412;-64
2021/01/25 10:35:34;;;;;;;21.65;8.95;;;;;;;;;;5107684;28;20024;-64
2021/01/25 10:38:02;;;;;;;18.15;10.20;;;;;;;;;;5108366;28;20208;-64
2021/01/25 10:40:28;;;;;;;17.08;6.00;;;;;;;;;;5108071;28;20016;-64
2021/01/25 10:42:55;;;;;;;23.40;10.18;;;;;;;;;;5108562;28;20069;-64
2021/01/25 10:45:22;;;;;;;10.88;4.85;;;;;;;;;;5099563;28;20407;-63
2021/01/25 10:47:48;;;;;;;10.25;3.95;;;;;;;;;;5107602;28;20490;-63
2021/01/25 10:50:14;;;;;;;13.52;7.32;;;;;;;;;;5107960;28;20073;-63
2021/01/25 10:52:40;;;;;;;12.27;4.63;;;;;;;;;;5107906;28;20046;-63
2021/01/25 10:55:08;;;;;;;15.75;5.32;;;;;;;;;;5106475;28;20020;-64
2021/01/25 10:57:34;;;;;;;9.93;4.90;;;;;;;;;;5095559;28;20114;-63
2021/01/25 11:00:01;;;;;;;7.28;4.03;;;;;;;;;;5069191;28;20103;-63
2021/01/25 11:02:27;;;;;;;9.68;3.75;;;;;;;;;;5073648;28;20023;-64
2021/01/25 11:04:54;;;;;;;10.80;4.63;;;;;;;;;;5072446;28;20038;-64
2021/01/25 11:07:57;;;;;;;6.47;3.25;;;;;;;;;;5108823;27;20427;-63
2021/01/25 11:10:25;;;;;;;11.38;4.20;;;;;;;;;;5109439;28;20023;-64
2021/01/25 11:12:52;;;;;;;10.02;3.97;;;;;;;;;;5108933;28;20061;-64
2021/01/25 11:15:19;;;;;;;13.30;5.60;;;;;;;;;;5109397;28;20090;-66
2021/01/25 11:17:45;;;;;;;12.68;6.18;;;;;;;;;;5107759;28;20027;-64
2021/01/25 11:20:12;;;;;;;8.13;4.43;;;;;;;;;;5108120;28;20016;-64
2021/01/25 11:22:38;;;;;;;14.90;6.35;;;;;;;;;;5109108;28;20036;-64
2021/01/25 11:25:04;;;;;;;10.25;4.75;;;;;;;;;;5109330;28;20016;-64
2021/01/25 11:27:31;;;;;;;9.88;4.20;;;;;;;;;;5108622;28;20162;-64
2021/01/25 11:29:57;;;;;;;11.73;3.60;;;;;;;;;;5109310;28;20023;-65
2021/01/25 11:32:23;;;;;;;9.48;4.07;;;;;;;;;;5107743;28;20031;-63
2021/01/25 11:34:51;;;;;;;10.75;3.78;;;;;;;;;;5102003;28;20035;-64
2021/01/25 11:37:17;;;;;;;11.82;5.20;;;;;;;;;;5126611;28;20425;-64
2021/01/25 11:39:44;;;;;;;6.38;3.20;;;;;;;;;;5114226;28;20015;-64
2021/01/25 11:42:10;;;;;;;12.68;3.38;;;;;;;;;;5110433;28;20033;-63
2021/01/25 11:44:37;;;;;;;6.32;2.65;;;;;;;;;;5118574;28;20026;-63
2021/01/25 11:47:04;;;;;;;10.98;4.55;;;;;;;;;;5128706;28;20031;-63
2021/01/25 11:49:30;;;;;;;9.45;4.85;;;;;;;;;;5118663;28;20659;-63
2021/01/25 11:51:56;;;;;;;9.65;3.92;;;;;;;;;;5107461;28;20035;-64
2021/01/25 11:54:23;;;;;;;13.45;7.68;;;;;;;;;;5087970;28;20028;-61
2021/01/25 11:56:49;;;;;;;9.88;3.60;;;;;;;;;;5105280;28;20031;-62
2021/01/25 11:59:15;;;;;;;7.60;2.38;;;;;;;;;;5107000;28;20027;-62
2021/01/25 12:01:41;;;;;;;9.30;3.90;;;;;;;;;;5097760;28;20031;-63
2021/01/25 12:04:07;;;;;;;8.75;4.40;;;;;;;;;;5107558;28;20100;-63
2021/01/25 12:06:34;;;;;;;7.10;3.55;;;;;;;;;;5106405;28;20113;-63
2021/01/25 12:09:00;;;;;;;18.27;4.50;;;;;;;;;;5106210;28;20028;-63
2021/01/25 12:11:26;;;;;;;11.25;4.65;;;;;;;;;;5106884;28;20023;-63
2021/01/25 12:13:53;;;;;;;11.27;4.43;;;;;;;;;;5106744;28;20512;-63
2021/01/25 12:16:19;;;;;;;8.07;3.70;;;;;;;;;;5105875;28;20031;-63
2021/01/25 12:18:46;;;;;;;8.60;4.63;;;;;;;;;;5087824;28;20071;-63
2021/01/25 12:21:13;;;;;;;7.85;4.00;;;;;;;;;;5091667;28;20020;-63
2021/01/25 12:23:39;;;;;;;14.40;4.30;;;;;;;;;;5092022;28;20020;-63
2021/01/25 12:26:06;;;;;;;9.32;3.80;;;;;;;;;;5092675;28;20094;-63
2021/01/25 12:28:32;;;;;;;11.77;5.63;;;;;;;;;;5091681;28;20122;-63
2021/01/25 12:31:00;;;;;;;6.30;3.25;;;;;;;;;;5090808;28;20051;-64
2021/01/25 12:33:26;;;;;;;8.15;3.67;;;;;;;;;;5090986;28;20403;-63
2021/01/25 12:35:52;;;;;;;11.43;5.50;;;;;;;;;;5083957;28;20052;-63
2021/01/25 12:38:19;;;;;;;16.20;6.25;;;;;;;;;;5086656;28;20024;-63
2021/01/25 12:40:46;;;;;;;7.25;2.53;;;;;;;;;;5092705;28;20043;-62
2021/01/25 12:43:12;;;;;;;10.15;5.47;;;;;;;;;;5091377;28;20023;-63
2021/01/25 12:45:38;;;;;;;9.20;4.47;;;;;;;;;;5091743;28;20635;-63
2021/01/25 12:48:04;;;;;;;7.20;3.00;;;;;;;;;;5092846;28;20094;-64
2021/01/25 12:50:31;;;;;;;8.00;3.83;;;;;;;;;;5092963;28;20119;-64
2021/01/25 12:52:57;;;;;;;14.77;7.05;;;;;;;;;;5092120;28;20043;-63
2021/01/25 12:55:23;;;;;;;7.72;2.17;;;;;;;;;;5092757;28;20078;-63
2021/01/25 12:57:50;;;;;;;9.93;5.53;;;;;;;;;;5092636;28;20058;-63
2021/01/25 13:00:20;;;;;;;5.20;2.38;;;;;;;;;;5090682;28;20020;-63
2021/01/25 13:02:46;;;;;;;10.18;5.10;;;;;;;;;;5089932;28;20016;-63
2021/01/25 13:05:14;;;;;;;17.73;11.68;;;;;;;;;;5091263;28;20024;-63
2021/01/25 13:07:40;;;;;;;4.90;2.25;;;;;;;;;;5091607;28;20109;-63
2021/01/25 13:10:07;;;;;;;10.80;5.70;;;;;;;;;;5085684;28;20016;-63
2021/01/25 13:12:37;;;;;;;8.55;3.53;;;;;;;;;;5092766;28;20028;-63
2021/01/25 13:15:07;;;;;;;10.80;3.78;;;;;;;;;;5091364;28;20475;-63
2021/01/25 13:17:34;;;;;;;8.68;4.18;;;;;;;;;;5093785;28;20127;-63
2021/01/25 13:20:00;;;;;;;12.82;6.35;;;;;;;;;;5093495;28;20054;-63
2021/01/25 13:22:26;;;;;;;24.88;10.00;;;;;;;;;;5093651;28;20024;-63
2021/01/25 13:24:52;;;;;;;22.95;9.02;;;;;;;;;;5093865;28;20122;-64
2021/01/25 13:27:18;;;;;;;14.27;5.68;;;;;;;;;;5090850;28;20111;-64
2021/01/25 13:29:45;;;;;;;17.10;9.50;;;;;;;;;;5090735;28;20352;-64
2021/01/25 13:32:11;;;;;;;17.25;10.40;;;;;;;;;;5091911;28;20169;-64
2021/01/25 13:34:37;;;;;;;17.98;10.98;;;;;;;;;;5091721;28;20116;-64
2021/01/25 13:37:05;;;;;;;12.73;6.28;;;;;;;;;;5091981;28;20058;-64
2021/01/25 13:39:31;;;;;;;17.95;9.27;;;;;;;;;;5092078;28;20016;-65
2021/01/25 13:41:57;;;;;;;14.65;7.68;;;;;;;;;;5091446;28;20117;-64
2021/01/25 13:44:23;;;;;;;14.98;7.28;;;;;;;;;;5092931;28;20157;-64
2021/01/25 13:46:49;;;;;;;16.20;9.15;;;;;;;;;;5093528;28;20111;-65
2021/01/25 13:49:17;;;;;;;18.17;11.63;;;;;;;;;;5093300;28;20032;-65
2021/01/25 13:51:43;;;;;;;19.67;10.23;;;;;;;;;;5093441;28;20024;-64
2021/01/25 13:54:09;;;;;;;18.83;9.20;;;;;;;;;;5092890;28;20020;-64
2021/01/25 13:56:35;;;;;;;13.50;5.63;;;;;;;;;;5093482;28;20472;-64
2021/01/25 13:59:02;;;;;;;16.73;9.18;;;;;;;;;;5093509;28;20074;-64
2021/01/25 14:03:17;;;;;;;14.13;7.10;;;;;;;;;;5109718;27;20798;-63
2021/01/25 14:05:43;;;;;;;15.68;9.05;;;;;;;;;;5110123;28;20028;-63
2021/01/25 14:08:10;;;;;;;15.82;9.43;;;;;;;;;;5109687;28;20020;-63
2021/01/25 14:10:37;;;;;;;11.15;5.80;;;;;;;;;;5109936;28;20024;-63
2021/01/25 14:13:04;;;;;;;12.55;4.03;;;;;;;;;;5109884;28;20046;-63
2021/01/25 14:15:30;;;;;;;22.38;10.30;;;;;;;;;;5108141;28;20468;-63
2021/01/25 14:17:56;;;;;;;11.93;7.93;;;;;;;;;;5110132;28;20066;-63
2021/01/25 14:20:24;;;;;;;8.63;3.50;;;;;;;;;;5110041;28;20384;-63
2021/01/25 14:22:50;;;;;;;11.00;5.47;;;;;;;;;;5109407;28;20428;-63
2021/01/25 14:25:17;;;;;;;9.07;3.63;;;;;;;;;;5109793;28;20027;-63
2021/01/25 14:27:43;;;;;;;6.10;2.40;;;;;;;;;;5109670;28;20035;-63
2021/01/25 14:30:12;;;;;;;7.28;3.33;;;;;;;;;;5109249;28;20093;-63
2021/01/25 14:32:38;;;;;;;7.55;3.05;;;;;;;;;;5109568;28;20024;-64
2021/01/25 14:35:05;;;;;;;12.05;5.25;;;;;;;;;;5109551;28;20098;-63